Cornelius, Oregon
Current Conditions -  °F | °C
As of 7:53 AM on Sunday 23 Nov 2014 (Local Time) from KHIO Reporting Station
Clear Clear  
Wind Chill: 58°   Ceiling: Unl
Heat Index: 58°   Visibility: 10mi
Dew Point: 44°   Wind: 13mph
Humidity: 60%   Direction: 170°S
Pressure: 30.25"   Gusts: NA
Location:  45.52°N, 123.05°W
Report Text: KHIO 231553Z 17011KT 10SM CLR 14/07 A3025 RMK AO2 SLP244 T01440067
Loading
Personal Weather Stations






























Interactive Weather Map New forecast layout! Learn more

10-Day Weather Forecast

Advertisements
Track Severe Weather on mobile